createdAt,value
2022-09-16T00:00:51.874Z,70.70
2022-09-16T00:03:18.662Z,70.70
2022-09-16T00:05:46.683Z,70.70
2022-09-16T00:08:14.496Z,70.70
2022-09-16T00:10:41.459Z,70.80
2022-09-16T00:13:08.119Z,70.70
2022-09-16T00:15:34.748Z,70.70
2022-09-16T00:18:01.386Z,70.70
2022-09-16T00:20:28.099Z,70.70
2022-09-16T00:22:54.787Z,70.70
2022-09-16T00:25:21.392Z,70.80
2022-09-16T00:27:49.018Z,70.70
2022-09-16T00:30:15.724Z,70.70
2022-09-16T00:32:42.404Z,70.70
2022-09-16T00:35:09.185Z,71.00
2022-09-16T00:37:36.145Z,70.70
2022-09-16T00:40:02.913Z,70.30
2022-09-16T00:42:29.597Z,70.60
2022-09-16T00:44:59.361Z,70.60
2022-09-16T00:47:38.114Z,70.50
2022-09-16T00:50:08.105Z,70.50
2022-09-16T00:52:35.535Z,71.20
2022-09-16T00:55:04.029Z,70.50
2022-09-16T00:57:30.940Z,70.50
2022-09-16T00:59:58.180Z,70.60
2022-09-16T01:02:25.741Z,70.50
2022-09-16T01:05:04.813Z,71.10
2022-09-16T01:07:34.572Z,70.50
2022-09-16T01:10:01.307Z,70.50
2022-09-16T01:12:29.458Z,70.50
2022-09-16T01:14:58.190Z,70.60
2022-09-16T01:17:33.965Z,70.50
2022-09-16T01:20:20.954Z,70.50
2022-09-16T01:22:59.430Z,70.50
2022-09-16T01:25:42.746Z,70.50
2022-09-16T01:28:28.362Z,70.50
2022-09-16T01:31:00.847Z,70.50
2022-09-16T01:33:33.647Z,70.40
2022-09-16T01:36:19.117Z,70.40
2022-09-16T01:38:51.735Z,70.40
2022-09-16T01:41:21.513Z,70.30
2022-09-16T01:44:11.640Z,70.40
2022-09-16T01:46:43.676Z,70.40
2022-09-16T01:49:10.307Z,70.40
2022-09-16T01:52:02.442Z,70.40
2022-09-16T01:54:38.723Z,70.30
2022-09-16T01:57:13.520Z,70.50
2022-09-16T01:59:43.111Z,70.30
2022-09-16T02:02:13.918Z,70.50
2022-09-16T02:04:44.250Z,70.50
2022-09-16T02:07:11.968Z,70.30
2022-09-16T02:09:44.938Z,70.40
2022-09-16T02:12:14.435Z,70.40
2022-09-16T02:14:45.858Z,70.30
2022-09-16T02:17:16.298Z,70.30
2022-09-16T02:20:03.213Z,70.40
2022-09-16T02:22:36.409Z,70.40
2022-09-16T02:25:04.955Z,70.30
2022-09-16T02:27:32.213Z,70.30
2022-09-16T02:30:05.433Z,70.30
2022-09-16T02:32:33.735Z,70.30
2022-09-16T02:35:01.731Z,70.20
2022-09-16T02:37:37.279Z,70.10
2022-09-16T02:40:06.170Z,70.10
2022-09-16T02:42:33.385Z,70.30
2022-09-16T02:45:00.577Z,70.10
2022-09-16T02:47:30.350Z,70.20
2022-09-16T02:50:01.772Z,70.10
2022-09-16T02:52:48.849Z,70.20
2022-09-16T02:55:19.618Z,70.20
2022-09-16T02:57:46.497Z,70.10
2022-09-16T03:00:13.240Z,70.20
2022-09-16T03:02:40.030Z,70.10
2022-09-16T03:05:06.987Z,70.20
2022-09-16T03:07:33.809Z,70.30
2022-09-16T03:10:00.508Z,70.10
2022-09-16T03:12:41.963Z,70.10
2022-09-16T03:15:17.547Z,70.00
2022-09-16T03:17:50.212Z,70.10
2022-09-16T03:20:32.110Z,70.10
2022-09-16T03:23:06.148Z,70.10
2022-09-16T03:25:39.577Z,70.10
2022-09-16T03:28:10.759Z,70.10
2022-09-16T03:30:40.819Z,70.10
2022-09-16T03:33:13.493Z,70.10
2022-09-16T03:35:45.639Z,70.00
2022-09-16T03:38:13.738Z,70.70
2022-09-16T03:40:41.999Z,70.10
2022-09-16T03:43:16.204Z,70.10
2022-09-16T03:45:43.442Z,70.00
2022-09-16T03:48:10.966Z,70.00
2022-09-16T03:50:37.557Z,70.10
2022-09-16T03:53:04.483Z,70.10
2022-09-16T03:55:31.119Z,70.10
2022-09-16T03:57:57.823Z,70.10
2022-09-16T04:00:24.448Z,70.20
2022-09-16T04:02:51.159Z,70.20
2022-09-16T04:05:17.827Z,70.00
2022-09-16T04:07:44.468Z,70.10
2022-09-16T04:10:12.510Z,70.00
2022-09-16T04:12:39.372Z,70.10
2022-09-16T04:15:06.205Z,69.90
2022-09-16T04:17:33.153Z,69.90
2022-09-16T04:19:59.839Z,70.00
2022-09-16T04:22:30.666Z,70.00
2022-09-16T04:24:57.623Z,69.90
2022-09-16T04:27:24.361Z,70.00
2022-09-16T04:29:50.992Z,70.00
2022-09-16T04:32:17.671Z,70.00
2022-09-16T04:34:44.340Z,69.90
2022-09-16T04:37:10.974Z,69.80
2022-09-16T04:39:37.591Z,70.00
2022-09-16T04:42:05.444Z,70.00
2022-09-16T04:44:32.037Z,70.00
2022-09-16T04:46:58.696Z,69.70
2022-09-16T04:49:25.379Z,70.00
2022-09-16T04:51:52.255Z,70.00
2022-09-16T04:54:19.223Z,70.00
2022-09-16T04:56:46.795Z,70.00
2022-09-16T04:59:13.440Z,70.00
2022-09-16T05:01:40.688Z,69.90
2022-09-16T05:04:07.920Z,70.00
2022-09-16T05:06:38.542Z,69.80
2022-09-16T05:09:05.709Z,69.80
2022-09-16T05:11:33.970Z,69.80
2022-09-16T05:14:01.533Z,69.80
2022-09-16T05:16:28.777Z,69.90
2022-09-16T05:18:56.865Z,69.70
2022-09-16T05:21:24.447Z,69.70
2022-09-16T05:23:51.096Z,69.80
2022-09-16T05:26:19.211Z,69.90
2022-09-16T05:28:46.121Z,69.80
2022-09-16T05:31:14.642Z,69.80
2022-09-16T05:33:42.326Z,69.80
2022-09-16T05:36:13.349Z,69.80
2022-09-16T05:38:40.182Z,69.70
2022-09-16T05:41:07.321Z,69.60
2022-09-16T05:43:34.234Z,69.80
2022-09-16T05:46:01.388Z,69.90
2022-09-16T05:48:28.519Z,69.70
2022-09-16T05:50:55.789Z,69.90
2022-09-16T05:53:22.697Z,70.00
2022-09-16T05:56:03.054Z,69.90
2022-09-16T05:58:31.257Z,69.80
2022-09-16T06:01:00.447Z,69.70
2022-09-16T06:03:27.677Z,69.70
2022-09-16T06:06:01.246Z,69.70
2022-09-16T06:08:31.961Z,69.80
2022-09-16T06:11:05.558Z,69.50
2022-09-16T06:13:32.368Z,69.80
2022-09-16T06:15:59.281Z,69.60
2022-09-16T06:18:26.799Z,69.60
2022-09-16T06:20:53.446Z,69.50
2022-09-16T06:23:20.262Z,69.50
2022-09-16T06:25:46.907Z,69.50
2022-09-16T06:28:13.902Z,69.50
2022-09-16T06:30:41.028Z,69.50
2022-09-16T06:33:08.101Z,69.60
2022-09-16T06:35:35.282Z,69.60
2022-09-16T06:38:02.274Z,69.40
2022-09-16T06:40:28.962Z,69.60
2022-09-16T06:42:59.564Z,69.70
2022-09-16T06:45:29.356Z,69.80
2022-09-16T06:47:58.749Z,69.70
2022-09-16T06:50:25.417Z,69.70
2022-09-16T06:52:52.053Z,70.30
2022-09-16T06:55:18.669Z,69.60
2022-09-16T06:57:45.283Z,69.60
2022-09-16T07:00:13.322Z,69.80
2022-09-16T07:02:39.969Z,69.80
2022-09-16T07:05:06.768Z,69.50
2022-09-16T07:07:34.170Z,69.60
2022-09-16T07:10:00.768Z,69.50
2022-09-16T07:12:28.384Z,69.60
2022-09-16T07:14:55.002Z,69.50
2022-09-16T07:17:23.729Z,69.50
2022-09-16T07:19:50.351Z,69.50
2022-09-16T07:22:17.057Z,69.50
2022-09-16T07:24:43.754Z,69.60
2022-09-16T07:27:10.480Z,69.50
2022-09-16T07:29:37.154Z,69.40
2022-09-16T07:32:03.860Z,69.60
2022-09-16T07:34:30.994Z,69.50
2022-09-16T07:36:59.759Z,69.50
2022-09-16T07:39:27.121Z,69.60
2022-09-16T07:41:53.754Z,70.30
2022-09-16T07:44:20.939Z,69.70
2022-09-16T07:46:48.400Z,69.70
2022-09-16T07:49:15.242Z,69.60
2022-09-16T07:51:42.090Z,69.60
2022-09-16T07:54:09.552Z,69.60
2022-09-16T07:56:36.793Z,69.60
2022-09-16T07:59:04.710Z,69.70
2022-09-16T08:01:31.659Z,69.50
2022-09-16T08:03:58.870Z,69.60
2022-09-16T08:06:27.080Z,69.50
2022-09-16T08:08:54.692Z,69.50
2022-09-16T08:11:21.943Z,70.20
2022-09-16T08:13:49.043Z,69.60
2022-09-16T08:16:17.434Z,70.20
2022-09-16T08:18:45.824Z,69.70
2022-09-16T08:21:13.702Z,69.50
2022-09-16T08:23:40.327Z,69.70
2022-09-16T08:26:10.874Z,69.70
2022-09-16T08:28:45.597Z,69.50
2022-09-16T08:31:24.525Z,69.50
2022-09-16T08:33:51.212Z,69.60
2022-09-16T08:36:21.991Z,69.60
2022-09-16T08:38:49.478Z,68.20
2022-09-16T08:41:18.935Z,69.60
2022-09-16T08:43:45.853Z,69.70
2022-09-16T08:46:16.339Z,69.60
2022-09-16T08:49:01.673Z,69.70
2022-09-16T08:51:28.928Z,69.90
2022-09-16T08:54:04.037Z,71.00
2022-09-16T08:56:35.048Z,69.70
2022-09-16T08:59:02.815Z,69.70
2022-09-16T09:01:49.520Z,69.60
2022-09-16T09:04:16.661Z,69.40
2022-09-16T09:06:58.629Z,69.70
2022-09-16T09:09:25.280Z,69.60
2022-09-16T09:12:13.180Z,69.60
2022-09-16T09:14:43.455Z,69.60
2022-09-16T09:17:10.319Z,69.40
2022-09-16T09:19:43.202Z,69.30
2022-09-16T09:22:19.094Z,69.20
2022-09-16T09:24:57.682Z,68.90
2022-09-16T09:27:31.854Z,68.80
2022-09-16T09:30:01.562Z,68.70
2022-09-16T09:32:51.266Z,68.60
2022-09-16T09:35:23.958Z,68.50
2022-09-16T09:37:50.642Z,68.20
2022-09-16T09:40:35.792Z,69.40
2022-09-16T09:43:31.633Z,68.20
2022-09-16T09:45:58.389Z,68.20
2022-09-16T09:48:27.909Z,68.10
2022-09-16T09:50:54.647Z,68.20
2022-09-16T09:53:21.330Z,68.20
2022-09-16T09:55:48.886Z,68.20
2022-09-16T09:58:25.158Z,68.20
2022-09-16T10:00:55.981Z,68.10
2022-09-16T10:03:23.183Z,68.00
2022-09-16T10:05:49.921Z,68.00
2022-09-16T10:08:22.583Z,68.10
2022-09-16T10:10:49.655Z,68.30
2022-09-16T10:13:17.511Z,68.20
2022-09-16T10:15:44.374Z,68.30
2022-09-16T10:18:13.265Z,68.10
2022-09-16T10:20:42.874Z,68.10
2022-09-16T10:23:11.359Z,68.00
2022-09-16T10:25:38.273Z,67.70
2022-09-16T10:28:06.603Z,67.70
2022-09-16T10:30:45.110Z,67.80
2022-09-16T10:33:14.829Z,67.70
2022-09-16T10:35:51.293Z,67.90
2022-09-16T10:38:22.094Z,67.80
2022-09-16T10:40:53.457Z,67.80
2022-09-16T10:43:20.881Z,67.80
2022-09-16T10:45:49.192Z,67.80
2022-09-16T10:48:17.770Z,67.80
2022-09-16T10:50:54.674Z,67.80
2022-09-16T10:53:23.285Z,68.00
2022-09-16T10:55:57.658Z,68.00
2022-09-16T10:58:24.357Z,68.00
2022-09-16T11:01:06.926Z,68.00
2022-09-16T11:04:00.068Z,66.80
2022-09-16T11:06:38.807Z,68.20
2022-09-16T11:09:17.700Z,68.80
2022-09-16T11:11:50.366Z,68.20
2022-09-16T11:14:27.315Z,68.30
2022-09-16T11:17:12.457Z,68.40
2022-09-16T11:19:39.159Z,68.50
2022-09-16T11:22:25.235Z,68.30
2022-09-16T11:24:58.932Z,68.20
2022-09-16T11:27:25.618Z,68.00
2022-09-16T11:30:01.599Z,67.80
2022-09-16T11:32:39.595Z,67.80
2022-09-16T11:35:06.392Z,67.80
2022-09-16T11:37:37.808Z,67.80
2022-09-16T11:40:23.016Z,67.80
2022-09-16T11:43:28.155Z,67.70
2022-09-16T11:45:58.171Z,67.80
2022-09-16T11:48:24.814Z,67.80
2022-09-16T11:51:18.310Z,67.90
2022-09-16T11:53:50.374Z,67.50
2022-09-16T11:56:20.182Z,67.90
2022-09-16T11:58:46.902Z,67.50
2022-09-16T12:01:46.633Z,67.20
2022-09-16T12:04:13.489Z,66.60
2022-09-16T12:06:50.807Z,66.80
2022-09-16T12:09:22.228Z,67.20
2022-09-16T12:11:55.009Z,67.00
2022-09-16T12:14:40.856Z,66.90
2022-09-16T12:17:07.638Z,66.90
2022-09-16T12:19:36.382Z,66.90
2022-09-16T12:22:03.174Z,67.20
2022-09-16T12:24:36.049Z,67.30
2022-09-16T12:27:09.624Z,67.10
2022-09-16T12:29:56.328Z,67.30
2022-09-16T12:32:43.327Z,67.30
2022-09-16T12:35:21.479Z,69.10
2022-09-16T12:37:49.670Z,67.50
2022-09-16T12:40:24.377Z,67.40
2022-09-16T12:42:53.922Z,67.60
2022-09-16T12:45:36.016Z,67.60
2022-09-16T12:48:19.324Z,67.80
2022-09-16T12:50:46.496Z,67.80
2022-09-16T12:53:22.191Z,67.30
2022-09-16T12:55:58.113Z,67.60
2022-09-16T12:58:43.644Z,67.70
2022-09-16T13:01:18.339Z,67.60
2022-09-16T13:03:48.270Z,67.50
2022-09-16T13:06:20.000Z,67.80
2022-09-16T13:08:46.767Z,68.00
2022-09-16T13:12:24.193Z,68.30
2022-09-16T13:14:36.661Z,68.40
2022-09-16T13:17:03.422Z,68.10
2022-09-16T13:19:36.374Z,68.40
2022-09-16T13:22:26.130Z,67.60
2022-09-16T13:25:04.603Z,67.60
2022-09-16T13:27:40.525Z,67.40
2022-09-16T13:30:13.230Z,67.40
2022-09-16T13:32:39.866Z,67.10
2022-09-16T13:35:18.737Z,67.10
2022-09-16T13:37:45.941Z,67.10
2022-09-16T13:40:29.033Z,67.10
2022-09-16T13:43:24.880Z,67.00
2022-09-16T13:46:00.650Z,66.80
2022-09-16T13:48:27.694Z,66.70
2022-09-16T13:50:57.590Z,67.00
2022-09-16T13:53:26.702Z,66.80
2022-09-16T13:55:56.175Z,66.90
2022-09-16T13:58:36.275Z,67.00
2022-09-16T14:01:15.195Z,66.90
2022-09-16T14:03:47.512Z,67.10
2022-09-16T14:06:14.193Z,67.00
2022-09-16T14:08:40.823Z,67.20
2022-09-16T14:11:07.416Z,67.30
2022-09-16T14:13:40.055Z,67.20
2022-09-16T14:16:12.666Z,67.20
2022-09-16T14:18:42.446Z,67.40
2022-09-16T14:21:19.608Z,67.80
2022-09-16T14:23:46.643Z,66.90
2022-09-16T14:26:17.685Z,67.00
2022-09-16T14:28:44.753Z,66.90
2022-09-16T14:31:19.649Z,67.20
2022-09-16T14:33:52.871Z,67.30
2022-09-16T14:36:34.033Z,67.30
2022-09-16T14:39:09.589Z,67.20
2022-09-16T14:41:59.036Z,67.00
2022-09-16T14:44:33.195Z,67.40
2022-09-16T14:47:08.840Z,67.20
2022-09-16T14:49:39.931Z,67.10
2022-09-16T14:52:15.658Z,67.20
2022-09-16T14:54:45.791Z,67.00
2022-09-16T14:57:23.095Z,67.10
2022-09-16T14:59:54.250Z,66.90
2022-09-16T15:02:23.287Z,67.20
2022-09-16T15:04:53.814Z,66.90
2022-09-16T15:07:23.009Z,66.90
2022-09-16T15:10:03.930Z,67.60
2022-09-16T15:12:47.800Z,66.60
2022-09-16T15:15:19.822Z,66.80
2022-09-16T15:17:57.725Z,66.90
2022-09-16T15:20:26.481Z,66.60
2022-09-16T15:22:53.755Z,66.70
2022-09-16T15:25:21.285Z,66.80
2022-09-16T15:27:47.892Z,66.70
2022-09-16T15:30:21.251Z,66.60
2022-09-16T15:32:48.148Z,66.60
2022-09-16T15:35:20.697Z,66.60
2022-09-16T15:37:47.403Z,66.50
2022-09-16T15:40:23.128Z,66.60
2022-09-16T15:43:02.083Z,66.80
2022-09-16T15:45:28.715Z,66.70
2022-09-16T15:48:00.679Z,66.70
2022-09-16T15:50:29.075Z,66.70
2022-09-16T15:52:59.662Z,66.70
2022-09-16T15:55:37.247Z,66.90
2022-09-16T15:58:12.219Z,66.90
2022-09-16T16:00:54.335Z,67.00
2022-09-16T16:03:21.236Z,66.80
2022-09-16T16:05:51.730Z,66.90
2022-09-16T16:08:37.226Z,67.10
2022-09-16T16:11:08.766Z,67.10
2022-09-16T16:13:35.395Z,67.00
2022-09-16T16:16:04.321Z,67.00
2022-09-16T16:18:35.140Z,67.00
2022-09-16T16:21:05.735Z,67.20
2022-09-16T16:23:32.650Z,67.20
2022-09-16T16:25:59.352Z,67.10
2022-09-16T16:28:26.007Z,66.90
2022-09-16T16:30:52.698Z,67.20
2022-09-16T16:33:19.378Z,67.20
2022-09-16T16:35:45.996Z,67.10
2022-09-16T16:38:12.654Z,66.90
2022-09-16T16:40:39.297Z,66.80
2022-09-16T16:43:06.155Z,66.80
2022-09-16T16:45:32.778Z,66.90
2022-09-16T16:48:00.379Z,66.90
2022-09-16T16:50:27.010Z,66.70
2022-09-16T16:52:53.595Z,66.80
2022-09-16T16:55:20.191Z,66.70
2022-09-16T16:57:46.845Z,66.70
2022-09-16T17:00:14.470Z,66.70
2022-09-16T17:02:41.471Z,66.30
2022-09-16T17:05:08.358Z,66.30
2022-09-16T17:07:34.959Z,66.60
2022-09-16T17:10:01.635Z,66.60
2022-09-16T17:12:28.301Z,66.90
2022-09-16T17:14:54.936Z,67.00
2022-09-16T17:17:21.590Z,67.20
2022-09-16T17:19:48.182Z,66.70
2022-09-16T17:22:14.967Z,66.70
2022-09-16T17:24:41.564Z,66.80
2022-09-16T17:27:08.167Z,66.80
2022-09-16T17:29:34.862Z,66.80
2022-09-16T17:32:03.049Z,66.80
2022-09-16T17:34:30.217Z,66.90
2022-09-16T17:36:58.424Z,66.80
2022-09-16T17:39:25.977Z,66.80
2022-09-16T17:41:54.425Z,66.90
2022-09-16T17:44:21.256Z,66.80
2022-09-16T17:46:47.934Z,66.90
2022-09-16T17:49:15.940Z,66.90
2022-09-16T17:51:42.950Z,66.80
2022-09-16T17:54:09.726Z,67.00
2022-09-16T17:56:36.423Z,66.90
2022-09-16T17:59:03.326Z,66.80
2022-09-16T18:01:30.801Z,66.80
2022-09-16T18:03:57.898Z,66.90
2022-09-16T18:06:26.651Z,66.70
2022-09-16T18:08:53.559Z,66.50
2022-09-16T18:11:21.091Z,66.20
2022-09-16T18:13:48.350Z,66.00
2022-09-16T18:16:20.242Z,65.90
2022-09-16T18:18:53.172Z,65.80
2022-09-16T18:21:20.134Z,65.70
2022-09-16T18:23:49.661Z,65.40
2022-09-16T18:26:16.944Z,65.40
2022-09-16T18:29:08.211Z,65.50
2022-09-16T18:31:32.304Z,65.50
2022-09-16T18:33:58.932Z,65.40
2022-09-16T18:36:29.886Z,65.20
2022-09-16T18:38:57.312Z,65.10
2022-09-16T18:41:25.430Z,65.00
2022-09-16T18:43:53.593Z,65.20
2022-09-16T18:46:26.685Z,65.30
2022-09-16T18:48:54.148Z,65.20
2022-09-16T18:51:25.342Z,65.40
2022-09-16T18:53:53.128Z,65.30
2022-09-16T18:56:21.600Z,65.30
2022-09-16T18:59:09.883Z,65.30
2022-09-16T19:01:37.120Z,65.40
2022-09-16T19:04:05.251Z,65.40
2022-09-16T19:06:33.399Z,65.50
2022-09-16T19:09:01.049Z,65.60
2022-09-16T19:11:28.046Z,65.60
2022-09-16T19:13:55.579Z,65.80
2022-09-16T19:16:22.430Z,65.80
2022-09-16T19:18:53.170Z,65.60
2022-09-16T19:21:20.923Z,65.80
2022-09-16T19:23:48.985Z,65.70
2022-09-16T19:26:16.142Z,65.90
2022-09-16T19:28:42.720Z,66.00
2022-09-16T19:31:13.855Z,65.90
2022-09-16T19:33:41.578Z,66.00
2022-09-16T19:36:11.507Z,66.70
2022-09-16T19:38:38.589Z,66.00
2022-09-16T19:41:05.746Z,66.00
2022-09-16T19:43:32.810Z,66.00
2022-09-16T19:46:07.027Z,66.10
2022-09-16T19:48:34.862Z,66.10
2022-09-16T19:51:01.781Z,66.10
2022-09-16T19:53:28.456Z,66.00
2022-09-16T19:55:59.347Z,66.10
2022-09-16T19:58:26.872Z,66.30
2022-09-16T20:01:07.361Z,66.30
2022-09-16T20:03:34.921Z,66.30
2022-09-16T20:06:03.091Z,66.40
2022-09-16T20:08:29.929Z,66.40
2022-09-16T20:11:01.727Z,66.40
2022-09-16T20:13:28.405Z,66.20
2022-09-16T20:15:58.754Z,66.90
2022-09-16T20:18:27.482Z,66.60
2022-09-16T20:20:59.691Z,66.40
2022-09-16T20:23:26.294Z,66.30
2022-09-16T20:26:00.471Z,66.20
2022-09-16T20:28:34.205Z,66.20
2022-09-16T20:31:00.864Z,66.10
2022-09-16T20:33:31.337Z,66.00
2022-09-16T20:36:10.574Z,66.20
2022-09-16T20:38:39.248Z,66.30
2022-09-16T20:41:12.090Z,66.10
2022-09-16T20:43:38.716Z,66.20
2022-09-16T20:46:10.254Z,66.30
2022-09-16T20:48:36.963Z,66.40
2022-09-16T20:51:08.255Z,66.40
2022-09-16T20:53:36.198Z,66.40
2022-09-16T20:56:04.671Z,66.50
2022-09-16T20:58:31.582Z,66.60
2022-09-16T21:01:12.672Z,66.70
2022-09-16T21:03:39.649Z,66.70
2022-09-16T21:06:07.806Z,66.80
2022-09-16T21:08:36.955Z,66.90
2022-09-16T21:11:04.804Z,66.90
2022-09-16T21:13:31.463Z,67.70
2022-09-16T21:15:58.782Z,67.00
2022-09-16T21:18:27.071Z,67.90
2022-09-16T21:21:00.040Z,67.10
2022-09-16T21:23:26.982Z,67.20
2022-09-16T21:25:54.627Z,67.20
2022-09-16T21:28:21.750Z,67.30
2022-09-16T21:30:48.556Z,67.50
2022-09-16T21:33:15.633Z,67.40
2022-09-16T21:35:50.544Z,67.60
2022-09-16T21:38:18.224Z,67.60
2022-09-16T21:40:45.507Z,67.60
2022-09-16T21:43:12.179Z,67.60
2022-09-16T21:45:45.165Z,67.80
2022-09-16T21:48:11.830Z,67.70
2022-09-16T21:50:39.090Z,67.80
2022-09-16T21:53:05.796Z,67.80
2022-09-16T21:55:32.498Z,67.70
2022-09-16T21:57:59.277Z,67.80
2022-09-16T22:00:25.918Z,68.40
2022-09-16T22:02:53.476Z,67.80
2022-09-16T22:05:20.094Z,67.80
2022-09-16T22:07:46.805Z,67.70
2022-09-16T22:10:13.774Z,67.90
2022-09-16T22:12:40.470Z,67.90
2022-09-16T22:15:07.670Z,67.80
2022-09-16T22:17:34.359Z,67.90
2022-09-16T22:20:01.118Z,67.90
2022-09-16T22:22:28.152Z,67.80
2022-09-16T22:24:54.908Z,67.90
2022-09-16T22:27:21.625Z,67.30
2022-09-16T22:29:48.246Z,67.80
2022-09-16T22:32:14.879Z,67.70
2022-09-16T22:34:41.513Z,67.80
2022-09-16T22:37:09.296Z,67.60
2022-09-16T22:39:36.002Z,67.80
2022-09-16T22:42:02.712Z,67.70
2022-09-16T22:44:29.439Z,67.90
2022-09-16T22:46:56.309Z,67.90
2022-09-16T22:49:23.100Z,67.80
2022-09-16T22:51:49.853Z,67.90
2022-09-16T22:54:16.714Z,67.90
2022-09-16T22:56:43.865Z,67.80
2022-09-16T22:59:15.368Z,67.80
2022-09-16T23:01:42.014Z,67.90
2022-09-16T23:04:09.454Z,67.80
2022-09-16T23:06:37.170Z,68.00
2022-09-16T23:11:44.074Z,68.00
2022-09-16T23:14:13.316Z,68.10
2022-09-16T23:16:39.939Z,68.00
2022-09-16T23:19:08.534Z,67.90
2022-09-16T23:21:35.636Z,68.00
2022-09-16T23:24:03.187Z,68.00
2022-09-16T23:26:31.609Z,68.00
2022-09-16T23:28:59.041Z,68.10
2022-09-16T23:31:30.124Z,68.10
2022-09-16T23:33:57.395Z,68.20
2022-09-16T23:36:25.777Z,68.80
2022-09-16T23:38:53.737Z,68.30
2022-09-16T23:41:24.709Z,68.20
2022-09-16T23:43:51.403Z,68.30
2022-09-16T23:46:19.638Z,68.30
2022-09-16T23:48:46.901Z,68.70
2022-09-16T23:51:14.078Z,68.40
2022-09-16T23:53:42.487Z,68.30
2022-09-16T23:56:10.889Z,68.40
2022-09-16T23:58:38.025Z,68.20
